Flight Track Log - Related Links

Times and Time Zones

All times are in EST time to prevent confusion due to time zone crossing. See the SWA3408 flight status page for this flight to view local times or setup timezone preferences in your user account.

Time Position Orientation Groundspeed Altitude Reporting Facility
EST Latitude Longitude Course Direction KTS MPH feet Rate Location/Type
Sat 10:57:53 AM 41.8000 -87.7167 180° South 168 193 2,100  Level Chicago TRACON
Sat 10:58:25 AM 41.7783 -87.6906 138° Southeast 194 223 3,300 2,903 Climbing Chicago Center
Sat 10:59:26 AM 41.7242 -87.6839 175° South 239 275 6,600 3,443 Climbing Chicago Center
Sat 11:00:27 AM 41.6622 -87.7233 205° Southwest 246 283 10,300 3,073 Climbing Chicago Center
Sat 11:01:29 AM 41.5953 -87.7653 205° Southwest 260 299 12,900 2,537 Climbing Chicago Center
Sat 11:02:30 AM 41.5206 -87.8114 205° Southwest 286 329 15,500 3,049 Climbing Chicago Center
Sat 11:03:00 AM 41.0253 -88.0261 180° South  Level Estimated
Sat 11:03:31 AM 41.4403 -87.8614 205° Southwest 311 358 19,100  Level Chicago Center
Sat 11:04:32 AM 41.3556 -87.8839 191° South 315 362 21,600 2,361 Climbing Chicago Center
Sat 11:05:33 AM 41.2647 -87.8917 184° South 322 371 23,900 2,293 Climbing Chicago Center
Sat 11:06:35 AM 41.1628 -87.8900 179° South 338 389 26,300 2,195 Climbing Chicago Center
Sat 11:07:36 AM 41.0758 -87.8875 179° South 339 390 28,400 2,115 Climbing Chicago Center
Sat 11:08:37 AM 40.9833 -87.8861 179° South 334 384 30,600 1,475 Climbing Chicago Center
Sat 11:09:38 AM 40.8694 -87.8886 181° South 340 391 31,400 780 Climbing Chicago Center
Sat 11:10:40 AM 40.7639 -87.8900 181° South 367 422 32,200 1,220 Climbing Chicago Center
Sat 11:11:41 AM 40.6567 -87.8917 181° South 382 440 33,900 1,180 Climbing Chicago Center
Sat 11:12:42 AM 40.5478 -87.8961 182° South 388 447 34,600 787 Climbing Chicago Center
Sat 11:13:43 AM 40.4336 -87.8972 180° South 402 463 35,500 683 Climbing Chicago Center
Sat 11:14:45 AM 40.3189 -87.8997 181° South 412 474 36,000 244 Climbing Chicago Center
Sat 11:15:46 AM 40.2067 -87.9031 181° South 407 468 36,000  Level Chicago Center
Sat 11:16:47 AM 40.0925 -87.9072 182° South 407 468 36,000  Level Chicago Center
Sat 11:17:49 AM 39.9728 -87.9100 181° South 419 482 36,000  Level Chicago Center
Sat 11:18:46 AM 39.8567 -87.9128 181° South 420 483 36,000  Level Indianapolis Center
Sat 11:19:47 AM 39.7406 -87.9153 181° South 420 483 36,000  Level Indianapolis Center
Sat 11:20:48 AM 39.6253 -87.9169 181° South 418 481 36,000  Level Indianapolis Center
Sat 11:21:50 AM 39.4883 -87.9192 181° South 414 476 36,000  Level Indianapolis Center
Sat 11:22:51 AM 39.3733 -87.9228 181° South 416 479 36,000  Level Indianapolis Center
Sat 11:23:52 AM 39.2600 -87.9250 181° South 413 475 36,000  Level Indianapolis Center
Sat 11:24:53 AM 39.1450 -87.9272 181° South 412 474 36,000  Level Indianapolis Center
Sat 11:25:55 AM 39.0317 -87.9283 180° South 410 472 36,000  Level Indianapolis Center
Sat 11:26:56 AM 38.9167 -87.9319 181° South 410 472 36,000  Level Indianapolis Center
Sat 11:27:57 AM 38.8039 -87.9333 181° South 406 467 36,000  Level Indianapolis Center
Sat 11:28:58 AM 38.6889 -87.9367 181° South 411 473 36,000  Level Indianapolis Center
Sat 11:30:00 AM 38.5756 -87.9386 181° South 408 470 36,000  Level Indianapolis Center
Sat 11:31:01 AM 38.4411 -87.9419 181° South 404 465 36,000 -49 Level Indianapolis Center
Sat 11:32:02 AM 38.3322 -87.9436 181° South 394 453 35,900 -590 Descending Indianapolis Center
Sat 11:33:03 AM 38.2233 -87.9464 181° South 392 451 34,800 -927 Descending Indianapolis Center
Sat 11:34:05 AM 38.1131 -87.9486 181° South 395 455 34,000 -390 Descending Indianapolis Center
Sat 11:35:06 AM 38.0003 -87.9503 181° South 403 464 34,000  Level Indianapolis Center
Sat 11:36:07 AM 37.8850 -87.9528 181° South 412 474 34,000  Level Indianapolis Center
Sat 11:37:08 AM 37.7731 -87.9550 181° South 403 464 34,000  Level Indianapolis Center
Sat 11:38:09 AM 37.6647 -87.9575 181° South 392 451 34,000  Level Indianapolis Center
Sat 11:39:11 AM 37.5619 -87.9861 192° South 377 434 34,000  Level Indianapolis Center
Sat 11:40:12 AM 37.4667 -88.0444 206° Southwest 375 432 34,000  Level Indianapolis Center
Sat 11:41:13 AM 37.3561 -88.1125 206° Southwest 377 434 34,000  Level Indianapolis Center
Sat 11:42:14 AM 37.2656 -88.1656 205° Southwest 367 422 34,000  Level Indianapolis Center
Sat 11:42:44 AM 37.2281 -88.1869 204° Southwest 361 415 34,000  Level Memphis Center
Sat 11:43:45 AM 37.1386 -88.2411 206° Southwest 358 412 34,000  Level Memphis Center
Sat 11:44:47 AM 37.0489 -88.2947 205° Southwest 357 411 34,000  Level Memphis Center
Sat 11:45:48 AM 36.9603 -88.3481 206° Southwest 353 406 34,000  Level Memphis Center
Sat 11:46:50 AM 36.8714 -88.4014 206° Southwest 353 406 34,000  Level Memphis Center
Sat 11:47:51 AM 36.7808 -88.4550 205° Southwest 358 412 34,000  Level Memphis Center
Sat 11:48:53 AM 36.6928 -88.5075 206° Southwest 353 406 34,000  Level Memphis Center
Sat 11:49:54 AM 36.5869 -88.5711 206° Southwest 349 402 34,000  Level Memphis Center
Sat 11:50:55 AM 36.4939 -88.6258 205° Southwest 360 414 34,000  Level Memphis Center
Sat 11:51:57 AM 36.3983 -88.6808 205° Southwest 371 427 34,000  Level Memphis Center
Sat 11:52:58 AM 36.3053 -88.7358 205° Southwest 371 427 34,000  Level Memphis Center
Sat 11:54:00 AM 36.2150 -88.7886 205° Southwest 362 417 34,000 -49 Level Memphis Center
Sat 11:55:01 AM 36.1281 -88.8389 205° Southwest 349 402 33,900 -1,268 Descending Memphis Center
Sat 11:56:03 AM 36.0406 -88.8892 205° Southwest 345 397 31,400 -2,341 Descending Memphis Center
Sat 11:57:04 AM 35.9567 -88.9381 205° Southwest 335 386 29,100 -2,195 Descending Memphis Center
Sat 11:58:06 AM 35.8769 -88.9833 205° Southwest 320 368 26,900 -2,457 Descending Memphis Center
Sat 11:59:11 AM 35.7689 -89.0475 206° Southwest 353 406 23,900 -1,857 Descending Memphis Center
Sat 12:00:12 PM 35.6906 -89.1200 217° Southwest 351 404 23,000 -1,610 Descending Memphis Center
Sat 12:01:14 PM 35.6297 -89.2000 227° Southwest 346 398 20,600 -2,390 Descending Memphis Center
Sat 12:02:15 PM 35.5650 -89.2833 226° Southwest 339 390 18,100 -2,244 Descending Memphis Center
Sat 12:03:17 PM 35.5022 -89.3631 226° Southwest 327 376 16,000 -1,024 Descending Memphis Center
Sat 12:04:18 PM 35.4306 -89.4567 227° Southwest 320 368 16,000 -293 Level Memphis Center
Sat 12:05:20 PM 35.3656 -89.5381 226° Southwest 328 377 15,400 -878 Descending Memphis Center
Sat 12:06:21 PM 35.3017 -89.6194 226° Southwest 331 381 14,200 -1,610 Descending Memphis Center
Sat 12:07:23 PM 35.2419 -89.6964 226° Southwest 314 361 12,100 -1,610 Descending Memphis Center
Sat 12:08:24 PM 35.1792 -89.7756 226° Southwest 320 368 10,900 -1,122 Descending Memphis Center
Sat 12:09:26 PM 35.1256 -89.8422 225° Southwest 285 328 9,800 -1,268 Descending Memphis Center
Sat 12:10:27 PM 35.0633 -89.8656 197° South 263 303 8,300 -1,415 Descending Memphis Center
Sat 12:11:29 PM 34.9986 -89.8647 179° South 238 274 6,900 -1,220 Descending Memphis Center
Sat 12:12:30 PM 34.9367 -89.8642 180° South 227 261 5,800 -1,122 Descending Memphis Center
Sat 12:13:32 PM 34.8667 -89.8628 179° South 218 251 4,600 -919 Descending Memphis Center
Sat 12:14:34 PM 34.8317 -89.9025 223° Southwest 205 236 3,900 -439 Descending Memphis Center
Sat 12:15:35 PM 34.8342 -89.9569 273° West 174 200 3,700 -439 Descending Memphis Center
Sat 12:16:37 PM 34.8792 -89.9850 333° Northwest 181 208 3,000 -823 Descending Memphis Center
Sat 12:17:39 PM 34.9272 -89.9856 359° North 173 199 2,000 -701 Descending Memphis Center
Sat 12:18:54 PM 34.9667 -89.9833 North 120 138 1,400 -578 Descending KMEM
Sat 12:19:54 PM 35.0167 -89.9833 360° North 125 144 700 -700 Descending KMEM
Sat 12:22:00 PM 35.0333 -89.9667 345° North  Level FlightAware Approximate

Login

Don't have an account? Register now (free) for customized features, flight alerts, and more!